Time;durP1;ratioP1;P1;durP2;ratioP2;P2;SDS_P1;SDS_P2;PMS_P1;PMS_P2;Temp;Humidity;BMP_temperature;BMP_pressure;BME280_temperature;BME280_humidity;BME280_pressure;Samples;Min_cycle;Max_cycle;Signal;HPM_P1;HPM_P2
2021/04/29 00:00:38;;;;;;;10.15;7.00;;;333.50;1843.20;;;;;;4993980;28;20034;-72
2021/04/29 00:03:03;;;;;;;10.02;6.65;;;333.50;1843.20;;;;;;4994075;28;20468;-72
2021/04/29 00:05:29;;;;;;;7.50;6.15;;;333.50;1817.60;;;;;;4993648;28;20042;-71
2021/04/29 00:07:56;;;;;;;10.68;6.88;;;333.50;1843.20;;;;;;4993941;28;20022;-69
2021/04/29 00:10:26;;;;;;;7.32;6.55;;;333.50;1817.60;;;;;;4993678;28;20029;-68
2021/04/29 00:12:52;;;;;;;8.23;6.15;;;333.50;1843.20;;;;;;4993749;28;20030;-69
2021/04/29 00:15:18;;;;;;;10.50;6.95;;;333.50;1817.60;;;;;;4993948;28;20038;-71
2021/04/29 00:17:44;;;;;;;8.18;6.18;;;333.50;1843.20;;;;;;4993903;28;20027;-72
2021/04/29 00:20:14;;;;;;;7.72;6.10;;;333.50;1843.20;;;;;;4993633;28;20472;-69
2021/04/29 00:22:40;;;;;;;9.30;6.25;;;333.50;1843.20;;;;;;4993030;28;20472;-71
2021/04/29 00:25:07;;;;;;;6.97;5.78;;;333.50;1843.20;;;;;;4993478;28;20539;-69
2021/04/29 00:27:33;;;;;;;7.65;5.90;;;333.50;1843.20;;;;;;4977856;28;20112;-72
2021/04/29 00:29:58;;;;;;;7.55;6.00;;;333.50;1843.20;;;;;;4997357;28;20065;-72
2021/04/29 00:32:24;;;;;;;7.82;5.32;;;333.50;1843.20;;;;;;4978990;28;20388;-69
2021/04/29 00:34:50;;;;;;;7.60;5.63;;;333.50;1843.20;;;;;;4979769;28;20023;-69
2021/04/29 00:37:16;;;;;;;8.57;5.60;;;333.50;1843.20;;;;;;4997101;28;20030;-69
2021/04/29 00:39:41;;;;;;;9.35;5.50;;;333.50;1843.20;;;;;;4997091;28;20534;-69
2021/04/29 00:42:07;;;;;;;7.85;5.60;;;333.50;1843.20;;;;;;4996776;28;20050;-72
2021/04/29 00:44:33;;;;;;;9.27;5.50;;;333.50;1843.20;;;;;;4997006;28;20019;-69
2021/04/29 00:47:00;;;;;;;8.15;5.63;;;333.40;1843.20;;;;;;4996667;28;20116;-71
2021/04/29 00:49:26;;;;;;;6.88;5.60;;;333.40;1843.20;;;;;;4996836;28;20423;-70
2021/04/29 00:51:52;;;;;;;5.85;5.28;;;333.40;1817.60;;;;;;4996820;28;20368;-69
2021/04/29 00:54:18;;;;;;;7.75;5.50;;;333.40;1817.60;;;;;;4996698;28;20025;-69
2021/04/29 00:56:43;;;;;;;5.60;4.97;;;333.40;1817.60;;;;;;4995247;28;20392;-73
2021/04/29 00:59:09;;;;;;;8.93;6.32;;;333.30;1843.20;;;;;;4996839;28;20026;-72
2021/04/29 01:01:36;;;;;;;8.93;6.22;;;333.30;1843.20;;;;;;4996815;28;20097;-69
2021/04/29 01:04:15;;;;;;;8.45;6.18;;;333.30;1843.20;;;;;;4996562;28;20110;-68
2021/04/29 01:06:56;;;;;;;10.43;5.43;;;333.20;1843.20;;;;;;4996382;28;20058;-69
2021/04/29 01:09:29;;;;;;;8.15;5.18;;;333.20;1843.20;;;;;;4996653;28;20034;-69
2021/04/29 01:12:01;;;;;;;7.18;5.30;;;333.10;1843.20;;;;;;4996471;28;20113;-73
2021/04/29 01:14:28;;;;;;;6.93;5.68;;;333.10;1843.20;;;;;;4996564;28;20358;-73
2021/04/29 01:16:56;;;;;;;6.68;5.50;;;333.10;1843.20;;;;;;4978914;28;20040;-72
2021/04/29 01:19:28;;;;;;;10.25;6.03;;;333.00;1843.20;;;;;;4996509;28;20026;-73
2021/04/29 01:21:54;;;;;;;6.57;5.88;;;333.00;1843.20;;;;;;4996233;28;20465;-71
2021/04/29 01:24:26;;;;;;;9.63;5.93;;;333.00;1868.80;;;;;;4996122;28;20026;-71
2021/04/29 01:27:01;;;;;;;7.13;5.70;;;332.90;1868.80;;;;;;4996296;28;20121;-71
2021/04/29 01:29:30;;;;;;;;;;;332.90;1868.80;;;;;;4996866;28;20023;-70
2021/04/29 01:31:58;;;;;;;6.93;5.18;;;332.80;1868.80;;;;;;4996472;28;20022;-70
2021/04/29 01:34:27;;;;;;;7.90;5.80;;;332.80;1868.80;;;;;;4996190;28;20041;-72
2021/04/29 01:36:54;;;;;;;7.72;6.03;;;332.80;1868.80;;;;;;4995606;28;20026;-69
2021/04/29 01:39:21;;;;;;;7.20;5.88;;;332.80;1868.80;;;;;;4994552;28;20120;-70
2021/04/29 01:41:49;;;;;;;8.07;6.15;;;332.80;1868.80;;;;;;4996154;28;20026;-72
2021/04/29 01:44:18;;;;;;;8.57;6.65;;;308.10;1843.20;;;;;;4995660;28;20472;-72
2021/04/29 01:46:45;;;;;;;8.63;6.50;;;308.10;1843.20;;;;;;4995506;28;20504;-70
2021/04/29 01:49:11;;;;;;;10.02;6.72;;;308.10;1843.20;;;;;;4995990;28;20037;-68
2021/04/29 01:51:40;;;;;;;8.05;6.32;;;308.10;1843.20;;;;;;4995697;28;20034;-70
2021/04/29 01:54:07;;;;;;;8.45;6.90;;;308.10;1843.20;;;;;;4995858;28;20034;-70
2021/04/29 01:56:35;;;;;;;8.23;6.03;;;308.10;1843.20;;;;;;4995765;28;20034;-72
2021/04/29 01:59:01;;;;;;;8.85;6.63;;;308.00;1843.20;;;;;;4995561;28;20025;-72
2021/04/29 02:01:28;;;;;;;8.95;6.65;;;308.00;1843.20;;;;;;4977945;28;20507;-70
2021/04/29 02:03:54;;;;;;;8.48;6.47;;;308.00;1843.20;;;;;;4995591;28;20477;-70
2021/04/29 02:06:20;;;;;;;11.32;7.22;;;308.00;1843.20;;;;;;4995269;28;20045;-70
2021/04/29 02:08:46;;;;;;;8.18;6.78;;;308.00;1868.80;;;;;;4995501;28;20408;-69
2021/04/29 02:11:13;;;;;;;9.55;7.22;;;307.90;1868.80;;;;;;4995640;28;20054;-69
2021/04/29 02:13:41;;;;;;;8.88;7.22;;;307.90;1868.80;;;;;;4995394;28;20591;-69
2021/04/29 02:16:15;;;;;;;8.18;6.30;;;308.00;1868.80;;;;;;4995519;28;20105;-69
2021/04/29 02:18:46;;;;;;;9.43;7.07;;;308.00;1868.80;;;;;;4977701;28;20022;-70
2021/04/29 02:21:15;;;;;;;9.23;7.10;;;308.00;1868.80;;;;;;4994872;28;20063;-72
2021/04/29 02:23:43;;;;;;;10.13;7.45;;;308.00;1868.80;;;;;;4995284;28;20027;-71
2021/04/29 02:26:09;;;;;;;10.20;7.60;;;308.00;1868.80;;;;;;4994820;28;20514;-69
2021/04/29 02:28:36;;;;;;;9.25;7.47;;;308.00;1868.80;;;;;;4995037;28;20061;-69
2021/04/29 02:31:05;;;;;;;11.35;8.02;;;308.00;1868.80;;;;;;4995320;28;20038;-72
2021/04/29 02:33:32;;;;;;;11.48;7.75;;;308.00;1868.80;;;;;;4995214;28;20018;-71
2021/04/29 02:35:58;;;;;;;12.65;7.93;;;308.00;1894.40;;;;;;4995006;28;20034;-72
2021/04/29 02:38:24;;;;;;;10.57;8.07;;;308.00;1894.40;;;;;;4995101;28;20457;-71
2021/04/29 02:40:50;;;;;;;12.68;7.78;;;308.00;1894.40;;;;;;4994988;28;20042;-69
2021/04/29 02:43:17;;;;;;;11.50;7.47;;;308.00;1894.40;;;;;;4995040;28;20459;-69
2021/04/29 02:45:44;;;;;;;10.93;7.55;;;308.00;1894.40;;;;;;4992009;28;20052;-70
2021/04/29 02:48:15;;;;;;;10.18;7.50;;;308.00;1894.40;;;;;;4975499;28;20034;-68
2021/04/29 02:50:44;;;;;;;10.35;7.00;;;308.10;1894.40;;;;;;4975061;28;20072;-69
2021/04/29 02:53:18;;;;;;;11.88;7.60;;;308.00;1894.40;;;;;;4975296;28;20026;-69
2021/04/29 02:55:45;;;;;;;11.25;8.55;;;308.00;1894.40;;;;;;4975360;28;20030;-72
2021/04/29 02:58:15;;;;;;;10.02;7.68;;;308.00;1894.40;;;;;;4975040;28;20040;-72
2021/04/29 03:00:42;;;;;;;9.52;7.40;;;308.00;1894.40;;;;;;4975153;28;20417;-72
2021/04/29 03:03:08;;;;;;;9.38;7.65;;;308.00;1894.40;;;;;;4975131;28;20051;-69
2021/04/29 03:05:36;;;;;;;10.55;7.45;;;308.00;1894.40;;;;;;4975002;28;20035;-70
2021/04/29 03:08:02;;;;;;;9.70;7.90;;;308.00;1894.40;;;;;;4975107;28;20054;-72
2021/04/29 03:10:28;;;;;;;12.30;7.35;;;308.00;1894.40;;;;;;4974958;28;20031;-72
2021/04/29 03:12:54;;;;;;;10.73;7.63;;;308.00;1920.00;;;;;;4974878;28;20027;-72
2021/04/29 03:15:20;;;;;;;9.68;8.02;;;308.00;1920.00;;;;;;4974488;28;20042;-70
2021/04/29 03:17:46;;;;;;;18.08;8.02;;;308.00;1894.40;;;;;;4974941;28;20019;-71
2021/04/29 03:20:12;;;;;;;54.25;12.15;;;308.10;1971.20;;;;;;4974668;28;20033;-72
2021/04/29 03:22:37;;;;;;;33.72;9.18;;;332.80;2022.40;;;;;;4974673;28;20161;-70
2021/04/29 03:25:04;;;;;;;20.40;9.00;;;332.80;1996.80;;;;;;4974583;28;20069;-72
2021/04/29 03:27:31;;;;;;;19.38;8.80;;;332.80;1971.20;;;;;;4974945;28;20027;-71
2021/04/29 03:29:56;;;;;;;16.48;8.93;;;332.80;1945.60;;;;;;4974719;28;20351;-71
2021/04/29 03:32:22;;;;;;;14.95;8.80;;;308.10;1920.00;;;;;;4974855;28;20029;-71
2021/04/29 03:34:48;;;;;;;10.20;8.27;;;308.10;1894.40;;;;;;4974764;28;20485;-72
2021/04/29 03:37:14;;;;;;;13.25;8.43;;;308.00;1920.00;;;;;;4974638;28;20082;-72
2021/04/29 03:39:40;;;;;;;13.10;8.95;;;308.00;1920.00;;;;;;4974759;28;20049;-72
2021/04/29 03:42:07;;;;;;;12.50;8.25;;;307.90;1920.00;;;;;;4974720;28;20058;-69
2021/04/29 03:44:33;;;;;;;11.07;8.00;;;307.90;1920.00;;;;;;4956830;28;20062;-69
2021/04/29 03:46:59;;;;;;;11.82;8.35;;;307.90;1894.40;;;;;;4986794;28;20068;-69
2021/04/29 03:49:25;;;;;;;10.73;8.27;;;307.80;1894.40;;;;;;4994095;28;20026;-70
2021/04/29 03:51:51;;;;;;;10.82;7.65;;;307.80;1920.00;;;;;;4993972;28;20046;-69
2021/04/29 03:54:16;;;;;;;13.90;7.88;;;307.80;1920.00;;;;;;4993904;28;20520;-69
2021/04/29 03:56:42;;;;;;;9.70;7.93;;;307.80;1920.00;;;;;;4993916;28;20026;-69
2021/04/29 03:59:08;;;;;;;10.82;8.27;;;307.80;1920.00;;;;;;4994324;28;20032;-69
2021/04/29 04:01:34;;;;;;;12.68;8.18;;;307.80;1920.00;;;;;;4994208;28;20366;-70
2021/04/29 04:04:00;;;;;;;12.57;7.35;;;307.90;1920.00;;;;;;4997810;28;20030;-72
2021/04/29 04:06:25;;;;;;;9.63;7.65;;;307.90;1920.00;;;;;;4997618;28;20038;-72
2021/04/29 04:08:51;;;;;;;11.55;8.48;;;307.90;1920.00;;;;;;4997894;28;20128;-72
2021/04/29 04:11:17;;;;;;;11.10;9.23;;;307.90;1920.00;;;;;;4997757;28;20157;-70
2021/04/29 04:13:42;;;;;;;11.82;7.68;;;307.90;1920.00;;;;;;4979891;28;20468;-69
2021/04/29 04:16:11;;;;;;;9.88;7.60;;;308.00;1920.00;;;;;;4997675;28;20097;-70
2021/04/29 04:18:38;;;;;;;11.23;8.43;;;308.00;1920.00;;;;;;4997543;28;20037;-69
2021/04/29 04:21:04;;;;;;;14.48;10.18;;;308.00;1894.40;;;;;;4997399;28;20117;-72
2021/04/29 04:23:30;;;;;;;14.60;9.82;;;308.00;1894.40;;;;;;4979886;28;20074;-73
2021/04/29 04:25:56;;;;;;;13.32;10.25;;;308.00;1894.40;;;;;;4997422;28;20062;-69
2021/04/29 04:28:21;;;;;;;16.35;10.30;;;308.10;1894.40;;;;;;4997439;28;20080;-69
2021/04/29 04:30:47;;;;;;;14.55;10.23;;;308.10;1894.40;;;;;;4997336;28;20109;-73
2021/04/29 04:33:13;;;;;;;13.10;10.13;;;308.10;1894.40;;;;;;4997503;28;20033;-73
2021/04/29 04:35:39;;;;;;;13.43;9.30;;;308.10;1894.40;;;;;;4997247;28;20056;-72
2021/04/29 04:38:05;;;;;;;14.85;9.43;;;332.80;1920.00;;;;;;4997474;28;20027;-72
2021/04/29 04:40:31;;;;;;;11.93;8.07;;;332.80;1920.00;;;;;;4997060;28;20493;-72
2021/04/29 04:42:57;;;;;;;10.32;7.50;;;332.80;1920.00;;;;;;4997461;28;20424;-73
2021/04/29 04:45:23;;;;;;;9.10;7.30;;;332.80;1920.00;;;;;;4997099;28;20030;-69
2021/04/29 04:47:49;;;;;;;13.40;7.53;;;332.80;1920.00;;;;;;4996908;28;20428;-69
2021/04/29 04:50:15;;;;;;;10.95;6.60;;;332.90;1920.00;;;;;;4996948;28;20026;-72
2021/04/29 04:52:40;;;;;;;12.70;6.95;;;332.90;1920.00;;;;;;4996863;28;20060;-72
2021/04/29 04:55:07;;;;;;;9.07;6.60;;;332.90;1920.00;;;;;;4997218;28;20030;-70
2021/04/29 04:57:33;;;;;;;9.60;6.68;;;333.00;1920.00;;;;;;4996891;28;20033;-69
2021/04/29 04:59:59;;;;;;;11.63;7.00;;;333.00;1920.00;;;;;;4996832;28;20104;-69
2021/04/29 05:02:25;;;;;;;14.13;6.88;;;333.10;1920.00;;;;;;4978995;28;20066;-69
2021/04/29 05:04:51;;;;;;;7.75;6.35;;;333.10;1920.00;;;;;;4996905;28;20544;-69
2021/04/29 05:07:17;;;;;;;10.35;6.25;;;333.10;1920.00;;;;;;4996231;28;20130;-69
2021/04/29 05:09:43;;;;;;;10.20;6.63;;;333.10;1920.00;;;;;;4996862;28;20109;-70
2021/04/29 05:12:12;;;;;;;11.10;6.53;;;333.20;1894.40;;;;;;4978468;28;20377;-69
2021/04/29 05:14:38;;;;;;;7.82;6.43;;;333.20;1894.40;;;;;;4996694;28;20049;-69
2021/04/29 05:17:04;;;;;;;10.25;7.05;;;333.20;1894.40;;;;;;4996673;28;20050;-69
2021/04/29 05:19:30;;;;;;;12.25;6.65;;;333.30;1894.40;;;;;;4996565;28;20531;-70
2021/04/29 05:21:56;;;;;;;8.90;6.70;;;333.30;1894.40;;;;;;4995991;28;20049;-70
2021/04/29 05:24:21;;;;;;;16.02;7.07;;;333.30;1894.40;;;;;;4996586;28;20042;-69
2021/04/29 05:26:47;;;;;;;10.55;5.60;;;333.40;1894.40;;;;;;4996210;28;20507;-69
2021/04/29 05:29:13;;;;;;;8.27;6.22;;;333.50;1894.40;;;;;;4996317;28;20023;-72
2021/04/29 05:31:39;;;;;;;9.07;5.70;;;333.50;1894.40;;;;;;4996337;28;20034;-73
2021/04/29 05:34:05;;;;;;;11.70;6.32;;;333.50;1868.80;;;;;;4996474;28;20092;-72
2021/04/29 05:36:31;;;;;;;11.88;6.15;;;333.50;1868.80;;;;;;4995821;28;20037;-73
2021/04/29 05:38:57;;;;;;;10.27;6.40;;;333.60;1868.80;;;;;;4996053;28;20031;-72
2021/04/29 05:41:23;;;;;;;8.93;5.97;;;333.70;1868.80;;;;;;4996261;28;20507;-72
2021/04/29 05:43:49;;;;;;;8.50;6.00;;;333.70;1868.80;;;;;;4978432;28;20030;-72
2021/04/29 05:46:15;;;;;;;11.40;6.00;;;358.40;1868.80;;;;;;4995798;28;20046;-73
2021/04/29 05:48:41;;;;;;;8.93;6.18;;;358.40;1868.80;;;;;;4996136;28;20027;-73
2021/04/29 05:51:07;;;;;;;16.95;6.60;;;358.50;1868.80;;;;;;4995871;28;20110;-73
2021/04/29 05:53:33;;;;;;;9.30;6.75;;;358.50;1868.80;;;;;;4995839;28;20022;-73
2021/04/29 05:55:58;;;;;;;14.35;6.78;;;358.60;1868.80;;;;;;4978326;28;20029;-72
2021/04/29 05:58:24;;;;;;;10.48;6.40;;;358.60;1843.20;;;;;;4995803;28;20022;-73
2021/04/29 06:00:50;;;;;;;9.30;6.18;;;358.60;1843.20;;;;;;4995734;28;20049;-72
2021/04/29 06:03:16;;;;;;;11.77;6.25;;;358.60;1843.20;;;;;;4995746;28;20491;-73
2021/04/29 06:05:42;;;;;;;13.20;6.72;;;358.70;1843.20;;;;;;4995465;28;20038;-70
2021/04/29 06:08:08;;;;;;;7.28;6.03;;;358.80;1817.60;;;;;;4995534;28;20102;-71
2021/04/29 06:10:35;;;;;;;9.23;6.15;;;358.80;1817.60;;;;;;4995520;28;20026;-71
2021/04/29 06:13:02;;;;;;;11.32;6.00;;;358.90;1817.60;;;;;;4995271;28;20030;-71
2021/04/29 06:15:27;;;;;;;18.02;8.05;;;359.00;1817.60;;;;;;4995452;28;20026;-70
2021/04/29 06:17:53;;;;;;;13.80;6.85;;;359.00;1817.60;;;;;;4988190;28;20035;-71
2021/04/29 06:20:19;;;;;;;8.95;6.20;;;359.10;1817.60;;;;;;4991132;28;20064;-70
2021/04/29 06:22:46;;;;;;;10.30;6.63;;;359.10;1792.00;;;;;;4989326;28;20465;-70
2021/04/29 06:25:12;;;;;;;14.02;7.22;;;359.30;1792.00;;;;;;4990075;28;20169;-71
2021/04/29 06:27:47;;;;;;;12.18;6.32;;;359.30;1792.00;;;;;;4989895;28;20110;-72
2021/04/29 06:30:13;;;;;;;9.07;5.93;;;384.10;1766.40;;;;;;4990789;28;20101;-71
2021/04/29 06:32:39;;;;;;;9.70;5.68;;;384.20;1766.40;;;;;;4989942;28;20040;-71
2021/04/29 06:35:05;;;;;;;10.65;6.20;;;384.30;1766.40;;;;;;4975327;28;20027;-71
2021/04/29 06:37:31;;;;;;;8.13;5.35;;;384.50;1766.40;;;;;;4989541;28;20041;-71
2021/04/29 06:39:56;;;;;;;10.63;5.68;;;384.70;1740.80;;;;;;4990840;28;20472;-70
2021/04/29 06:42:22;;;;;;;8.65;6.13;;;384.90;1740.80;;;;;;4990630;28;20030;-72
2021/04/29 06:44:50;;;;;;;7.55;6.18;;;409.70;1740.80;;;;;;4984080;28;20022;-71
2021/04/29 06:47:20;;;;;;;8.95;5.75;;;409.70;1740.80;;;;;;4986923;28;20058;-72
2021/04/29 06:49:47;;;;;;;13.80;5.85;;;409.90;1715.20;;;;;;4978340;28;20031;-71
2021/04/29 06:52:14;;;;;;;11.02;5.88;;;410.00;1689.60;;;;;;4994562;28;20041;-72
2021/04/29 06:54:39;;;;;;;16.10;5.22;;;410.20;1689.60;;;;;;4994412;28;20033;-72
2021/04/29 06:57:05;;;;;;;7.57;5.22;;;410.30;1664.00;;;;;;4993919;28;20403;-70
2021/04/29 06:59:31;;;;;;;11.45;6.05;;;410.40;1664.00;;;;;;4994700;28;20030;-70
2021/04/29 07:01:57;;;;;;;7.05;5.38;;;435.20;1664.00;;;;;;4994757;28;20105;-70
2021/04/29 07:04:24;;;;;;;7.78;5.50;;;435.40;1664.00;;;;;;4994676;28;20491;-70
2021/04/29 07:06:50;;;;;;;10.32;6.03;;;435.60;1638.40;;;;;;4976496;28;20496;-72
2021/04/29 07:09:15;;;;;;;10.38;6.43;;;435.70;1638.40;;;;;;4994365;28;20114;-73
2021/04/29 07:11:41;;;;;;;9.32;5.55;;;435.70;1612.80;;;;;;4994309;28;20050;-73
2021/04/29 07:14:07;;;;;;;9.80;5.80;;;435.80;1612.80;;;;;;4992292;28;20027;-72
2021/04/29 07:16:32;;;;;;;7.93;5.60;;;435.80;1587.20;;;;;;4974346;28;20030;-72
2021/04/29 07:18:58;;;;;;;21.90;6.20;;;435.90;1587.20;;;;;;4974836;28;20042;-73
2021/04/29 07:21:24;;;;;;;15.38;6.13;;;436.00;1587.20;;;;;;4974640;28;20053;-73
2021/04/29 07:23:49;;;;;;;17.63;6.53;;;460.80;1612.80;;;;;;4975016;28;20030;-73
2021/04/29 07:26:16;;;;;;;11.73;6.00;;;461.00;1587.20;;;;;;4974734;28;20086;-73
2021/04/29 07:28:42;;;;;;;7.50;5.32;;;461.10;1587.20;;;;;;4974480;28;20055;-73
2021/04/29 07:31:09;;;;;;;10.10;5.40;;;461.20;1561.60;;;;;;4975029;28;20027;-73
2021/04/29 07:33:34;;;;;;;15.35;6.80;;;461.20;1561.60;;;;;;4974994;28;20023;-73
2021/04/29 07:36:00;;;;;;;9.27;6.40;;;461.30;1561.60;;;;;;4974950;28;20073;-73
2021/04/29 07:38:26;;;;;;;8.40;5.55;;;461.30;1561.60;;;;;;4978121;28;20023;-73
2021/04/29 07:40:52;;;;;;;9.43;5.85;;;461.40;1561.60;;;;;;4978481;28;20037;-73
2021/04/29 07:43:17;;;;;;;9.93;5.88;;;461.50;1561.60;;;;;;4978737;28;20038;-72
2021/04/29 07:45:43;;;;;;;8.32;6.07;;;461.60;1536.00;;;;;;4978625;28;20035;-73
2021/04/29 07:48:09;;;;;;;9.90;6.50;;;461.70;1536.00;;;;;;4978715;28;20047;-72
2021/04/29 07:50:35;;;;;;;12.18;6.43;;;486.50;1536.00;;;;;;4978232;28;20081;-72
2021/04/29 07:53:01;;;;;;;11.73;7.10;;;486.60;1536.00;;;;;;4975728;28;20066;-72
2021/04/29 07:55:27;;;;;;;15.88;7.72;;;486.70;1536.00;;;;;;4978248;28;20022;-73
2021/04/29 07:57:53;;;;;;;10.40;6.45;;;486.70;1536.00;;;;;;4978251;28;20037;-72
2021/04/29 08:00:20;;;;;;;9.80;6.50;;;486.80;1510.40;;;;;;4977922;28;20031;-71
2021/04/29 08:02:46;;;;;;;9.75;6.45;;;486.80;1510.40;;;;;;4978121;28;20026;-73
2021/04/29 08:05:12;;;;;;;10.20;7.00;;;486.90;1510.40;;;;;;4977977;28;20422;-72
2021/04/29 08:07:39;;;;;;;14.20;7.18;;;486.90;1510.40;;;;;;4959162;28;20114;-74
2021/04/29 08:10:06;;;;;;;11.18;7.53;;;487.00;1484.80;;;;;;4978178;28;20022;-75
2021/04/29 08:12:32;;;;;;;10.60;7.22;;;487.00;1484.80;;;;;;4978055;28;20030;-74
2021/04/29 08:14:59;;;;;;;10.25;7.22;;;487.10;1510.40;;;;;;4977547;28;20385;-72
2021/04/29 08:17:29;;;;;;;10.65;6.90;;;487.20;1510.40;;;;;;4977886;28;20117;-73
2021/04/29 08:19:56;;;;;;;11.25;6.90;;;512.00;1510.40;;;;;;4974646;28;20425;-73
2021/04/29 08:22:48;;;;;;;9.20;6.72;;;512.10;1484.80;;;;;;4977286;28;20062;-72
2021/04/29 08:25:14;;;;;;;19.73;7.95;;;512.20;1484.80;;;;;;4936828;29;20055;-72
2021/04/29 08:27:40;;;;;;;17.65;7.38;;;512.30;1459.20;;;;;;4921038;29;20044;-72
2021/04/29 08:30:07;;;;;;;13.48;7.53;;;512.40;1459.20;;;;;;4936832;29;20163;-72
2021/04/29 08:32:33;;;;;;;14.43;6.60;;;512.40;1433.60;;;;;;4936708;29;20509;-71
2021/04/29 08:34:59;;;;;;;7.45;6.30;;;512.50;1433.60;;;;;;4936880;29;20055;-72
2021/04/29 08:37:25;;;;;;;16.60;6.68;;;512.60;1433.60;;;;;;4920273;29;20403;-72
2021/04/29 08:39:50;;;;;;;11.18;6.18;;;512.60;1433.60;;;;;;4936785;29;20107;-72
2021/04/29 08:42:16;;;;;;;10.27;5.75;;;512.70;1433.60;;;;;;4936697;28;20119;-73
2021/04/29 08:44:43;;;;;;;8.07;4.90;;;512.80;1433.60;;;;;;4936547;29;20028;-73
2021/04/29 08:47:09;;;;;;;9.52;5.20;;;512.90;1408.00;;;;;;4936233;29;20131;-72
2021/04/29 08:49:36;;;;;;;12.88;5.38;;;537.60;1433.60;;;;;;4936302;29;20063;-72
2021/04/29 08:52:03;;;;;;;11.15;5.70;;;537.70;1433.60;;;;;;4936268;29;20044;-72
2021/04/29 08:54:29;;;;;;;10.13;5.50;;;537.80;1408.00;;;;;;4936442;29;20431;-71
2021/04/29 08:56:54;;;;;;;10.02;5.75;;;538.10;1433.60;;;;;;4936128;29;20032;-72
2021/04/29 08:59:21;;;;;;;10.48;5.15;;;538.30;1408.00;;;;;;4936307;29;20451;-72
2021/04/29 09:01:47;;;;;;;8.50;5.45;;;538.40;1408.00;;;;;;4950320;28;20050;-72
2021/04/29 09:04:18;;;;;;;8.70;4.97;;;563.20;1408.00;;;;;;4976973;28;20018;-72
2021/04/29 09:06:47;;;;;;;8.85;5.70;;;563.40;1408.00;;;;;;4976175;28;20074;-72
2021/04/29 09:09:17;;;;;;;10.57;4.85;;;563.60;1382.40;;;;;;4976844;28;20049;-72
2021/04/29 09:11:48;;;;;;;10.75;5.32;;;563.70;1382.40;;;;;;4976198;28;20027;-72
2021/04/29 09:14:14;;;;;;;11.02;4.97;;;563.70;1356.80;;;;;;4958802;28;20077;-72
2021/04/29 09:16:41;;;;;;;8.88;5.40;;;564.00;1356.80;;;;;;4976406;28;20031;-72
2021/04/29 09:19:25;;;;;;;10.70;5.97;;;588.80;1331.20;;;;;;4958969;28;20026;-73
2021/04/29 09:21:51;;;;;;;11.97;4.67;;;589.00;1331.20;;;;;;4976667;28;20031;-73
2021/04/29 09:24:17;;;;;;;8.45;4.55;;;589.30;1331.20;;;;;;4976693;28;20655;-72
2021/04/29 09:26:44;;;;;;;5.07;4.28;;;589.50;1305.60;;;;;;4976537;28;20035;-73
2021/04/29 09:29:14;;;;;;;10.13;4.47;;;589.70;1280.00;;;;;;4976248;28;20031;-73
2021/04/29 09:31:43;;;;;;;6.68;3.65;;;614.50;1254.40;;;;;;4976313;28;20035;-72
2021/04/29 09:34:09;;;;;;;6.55;4.18;;;614.70;1254.40;;;;;;4976476;28;20023;-72
2021/04/29 09:36:45;;;;;;;4.90;3.95;;;614.90;1228.80;;;;;;4975974;28;20058;-72
2021/04/29 09:39:13;;;;;;;9.00;4.75;;;615.10;1203.20;;;;;;4959004;28;20034;-72
2021/04/29 09:41:47;;;;;;;19.85;6.28;;;615.20;1228.80;;;;;;4958948;28;20031;-72
2021/04/29 09:44:14;;;;;;;;;;;615.20;1203.20;;;;;;4959011;28;20033;-71
2021/04/29 09:46:45;;;;;;;9.65;5.55;;;615.30;1203.20;;;;;;4976063;28;19918;-72
2021/04/29 09:49:32;;;;;;;14.20;5.70;;;615.30;1203.20;;;;;;4975959;28;20461;-72
2021/04/29 09:52:04;;;;;;;9.63;5.20;;;640.00;1203.20;;;;;;4975730;28;20085;-73
2021/04/29 09:54:39;;;;;;;9.18;5.20;;;640.20;1203.20;;;;;;4975710;28;20026;-74
2021/04/29 09:57:11;;;;;;;9.50;5.32;;;640.20;1203.20;;;;;;4975828;28;20027;-74
2021/04/29 09:59:41;;;;;;;6.85;4.28;;;640.40;1177.60;;;;;;4956805;28;20036;-74
2021/04/29 10:02:09;;;;;;;11.52;4.68;;;640.60;1177.60;;;;;;4976021;28;20030;-74
2021/04/29 10:04:38;;;;;;;7.75;4.57;;;640.70;1152.00;;;;;;4975726;28;20037;-74
2021/04/29 10:07:06;;;;;;;7.53;3.95;;;640.90;1152.00;;;;;;4975385;28;20038;-74
2021/04/29 10:09:33;;;;;;;8.93;4.63;;;665.60;1152.00;;;;;;4975547;28;20465;-73
2021/04/29 10:12:10;;;;;;;9.77;4.28;;;665.70;1152.00;;;;;;4975862;28;20031;-73
2021/04/29 10:14:40;;;;;;;6.22;3.60;;;666.00;1126.40;;;;;;4975486;28;20066;-74
2021/04/29 10:17:11;;;;;;;5.38;3.80;;;666.20;1126.40;;;;;;4975532;28;20127;-73
2021/04/29 10:19:40;;;;;;;8.00;3.50;;;666.30;1100.80;;;;;;4975593;28;20031;-74
2021/04/29 10:22:07;;;;;;;10.05;3.88;;;666.50;1075.20;;;;;;4975033;28;20027;-73
2021/04/29 10:24:40;;;;;;;6.22;3.78;;;666.50;1100.80;;;;;;4957914;28;20081;-73
2021/04/29 10:27:08;;;;;;;7.20;3.80;;;666.50;1075.20;;;;;;4975432;28;20442;-73
2021/04/29 10:29:34;;;;;;;19.20;5.47;;;666.50;1075.20;;;;;;4975057;28;20034;-73
2021/04/29 10:32:02;;;;;;;27.95;7.70;;;666.50;1075.20;;;;;;4975282;28;20504;-74
2021/04/29 10:34:43;;;;;;;14.40;6.05;;;666.40;1075.20;;;;;;4975108;28;20073;-73
2021/04/29 10:37:16;;;;;;;18.67;6.57;;;666.50;1075.20;;;;;;4975193;28;20023;-73
2021/04/29 10:40:03;;;;;;;11.38;5.65;;;666.40;1075.20;;;;;;4975015;28;20081;-73
2021/04/29 10:42:42;;;;;;;7.10;4.60;;;666.40;1049.60;;;;;;4974896;28;20481;-73
2021/04/29 10:45:10;;;;;;;6.78;4.82;;;666.40;1075.20;;;;;;4974854;28;20077;-73
2021/04/29 10:47:37;;;;;;;7.22;4.65;;;666.30;1049.60;;;;;;4974779;28;20089;-73
2021/04/29 10:50:12;;;;;;;7.57;4.85;;;666.30;1075.20;;;;;;4974854;28;20093;-73
2021/04/29 10:52:50;;;;;;;9.77;4.72;;;666.40;1075.20;;;;;;4974890;28;20073;-73
2021/04/29 10:55:24;;;;;;;5.97;4.50;;;666.40;1075.20;;;;;;4974827;28;20027;-73
2021/04/29 10:57:51;;;;;;;713.95;560.25;;;691.20;1049.60;;;;;;4974564;28;20035;-72
2021/04/29 11:00:17;;;;;;;403.88;292.38;;;666.50;1152.00;;;;;;4977307;28;20501;-73
2021/04/29 11:02:42;;;;;;;93.28;61.67;;;666.40;1100.80;;;;;;4983420;28;20472;-72
2021/04/29 11:05:22;;;;;;;18.27;9.50;;;691.20;1075.20;;;;;;4991625;28;20057;-73
2021/04/29 11:07:48;;;;;;;20.83;8.27;;;691.40;1024.00;;;;;;4984618;28;20046;-73
2021/04/29 11:10:15;;;;;;;15.57;7.93;;;691.40;1024.00;;;;;;4981843;28;20023;-73
2021/04/29 11:12:43;;;;;;;15.25;9.35;;;691.50;1049.60;;;;;;4982950;28;20049;-73
2021/04/29 11:15:37;;;;;;;15.90;8.38;;;691.50;1024.00;;;;;;4983620;28;20020;-73
2021/04/29 11:18:14;;;;;;;30.20;9.80;;;691.60;1049.60;;;;;;4987141;28;20510;-73
2021/04/29 11:20:59;;;;;;;20.60;9.80;;;691.70;1024.00;;;;;;4993592;28;20053;-73
2021/04/29 11:23:42;;;;;;;31.58;12.50;;;691.70;1024.00;;;;;;4993962;28;20025;-73
2021/04/29 11:26:17;;;;;;;15.67;9.23;;;691.70;1024.00;;;;;;4993969;28;20034;-73
2021/04/29 11:28:44;;;;;;;15.30;8.02;;;691.90;1024.00;;;;;;4987928;28;20030;-73
2021/04/29 11:31:10;;;;;;;12.25;6.07;;;692.00;1024.00;;;;;;4973833;28;20038;-73
2021/04/29 11:33:38;;;;;;;14.35;5.80;;;716.80;998.40;;;;;;4972360;28;20050;-73
2021/04/29 11:36:33;;;;;;;11.75;6.05;;;692.00;972.80;;;;;;4982790;28;20027;-73
2021/04/29 11:39:06;;;;;;;9.60;4.95;;;691.90;972.80;;;;;;4933489;29;20036;-73
2021/04/29 11:41:32;;;;;;;11.38;4.97;;;691.80;972.80;;;;;;4933779;29;20032;-73
2021/04/29 11:43:59;;;;;;;8.82;5.18;;;691.60;972.80;;;;;;4933720;29;20067;-74
2021/04/29 11:46:26;;;;;;;9.30;5.13;;;691.40;998.40;;;;;;4933364;29;20581;-74
2021/04/29 11:49:02;;;;;;;15.73;5.00;;;691.20;998.40;;;;;;4933535;29;20046;-74
2021/04/29 11:51:29;;;;;;;8.50;4.75;;;666.30;998.40;;;;;;4927961;29;20090;-73
2021/04/29 11:54:03;;;;;;;13.52;4.60;;;666.10;998.40;;;;;;4933652;29;20067;-73
2021/04/29 11:56:45;;;;;;;10.70;4.50;;;665.90;1024.00;;;;;;4932960;29;20044;-73
2021/04/29 11:59:12;;;;;;;10.90;5.85;;;665.80;1049.60;;;;;;4933523;29;20056;-73
2021/04/29 12:01:39;;;;;;;8.57;5.07;;;665.70;1049.60;;;;;;4933613;29;20039;-73
2021/04/29 12:04:18;;;;;;;13.27;4.97;;;640.90;1024.00;;;;;;4932061;29;20023;-73
2021/04/29 12:06:50;;;;;;;8.73;4.90;;;640.80;1049.60;;;;;;4932970;29;20047;-73
2021/04/29 12:09:16;;;;;;;8.23;4.50;;;640.70;1049.60;;;;;;4932855;29;20557;-73
2021/04/29 12:11:42;;;;;;;9.85;5.10;;;640.60;1049.60;;;;;;4932906;29;20092;-73
2021/04/29 12:14:08;;;;;;;10.20;4.80;;;640.60;1049.60;;;;;;4932765;29;20028;-73
2021/04/29 12:16:45;;;;;;;21.48;6.28;;;640.50;1075.20;;;;;;4989358;28;20520;-74